createdAt,value
2024-01-21T00:00:28.629Z,-4.16
2024-01-21T00:01:30.268Z,-4.27
2024-01-21T00:02:32.201Z,-4.28
2024-01-21T00:03:33.913Z,-4.21
2024-01-21T00:04:35.556Z,-4.23
2024-01-21T00:05:37.243Z,-4.32
2024-01-21T00:06:40.316Z,-4.67
2024-01-21T00:07:41.912Z,-4.55
2024-01-21T00:08:43.540Z,-4.32
2024-01-21T00:09:45.219Z,-4.38
2024-01-21T00:10:46.872Z,-4.26
2024-01-21T00:11:48.450Z,-4.29
2024-01-21T00:12:50.113Z,-4.25
2024-01-21T00:13:51.735Z,-4.18
2024-01-21T00:14:53.424Z,-4.17
2024-01-21T00:15:55.092Z,-4.15
2024-01-21T00:16:56.655Z,-4.14
2024-01-21T00:18:00.161Z,-4.07
2024-01-21T00:19:01.954Z,-4.06
2024-01-21T00:20:04.069Z,-4.05
2024-01-21T00:21:05.890Z,-4.00
2024-01-21T00:22:08.824Z,-4.11
2024-01-21T00:23:10.475Z,-4.08
2024-01-21T00:24:12.136Z,-4.14
2024-01-21T00:25:13.834Z,-4.20
2024-01-21T00:26:15.581Z,-4.22
2024-01-21T00:27:18.054Z,-4.24
2024-01-21T00:28:19.686Z,-4.47
2024-01-21T00:29:21.402Z,-4.38
2024-01-21T00:30:23.362Z,-4.30
2024-01-21T00:31:25.008Z,-4.23
2024-01-21T00:32:26.647Z,-4.28
2024-01-21T00:33:28.382Z,-4.42
2024-01-21T00:34:30.353Z,-4.37
2024-01-21T00:35:32.029Z,-4.32
2024-01-21T00:36:33.618Z,-4.35
2024-01-21T00:37:36.603Z,-4.35
2024-01-21T00:38:38.225Z,-4.41
2024-01-21T00:39:39.975Z,-4.39
2024-01-21T00:40:42.500Z,-4.63
2024-01-21T00:41:53.349Z,-4.50
2024-01-21T00:42:59.572Z,-4.64
2024-01-21T00:44:01.261Z,-4.75
2024-01-21T00:45:03.084Z,-4.94
2024-01-21T00:46:05.288Z,-4.85
2024-01-21T00:47:07.076Z,-4.67
2024-01-21T00:48:08.799Z,-4.52
2024-01-21T00:49:10.620Z,-4.47
2024-01-21T00:50:12.710Z,-4.51
2024-01-21T00:51:14.320Z,-4.46
2024-01-21T00:52:15.956Z,-4.36
2024-01-21T00:53:18.869Z,-4.34
2024-01-21T00:54:20.563Z,-4.38
2024-01-21T00:55:22.165Z,-4.42
2024-01-21T00:56:23.699Z,-4.34
2024-01-21T00:57:25.456Z,-4.36
2024-01-21T00:58:28.581Z,-4.41
2024-01-21T00:59:30.359Z,-4.42
2024-01-21T01:00:32.222Z,-4.60
2024-01-21T01:01:33.881Z,-4.63
2024-01-21T01:02:35.483Z,-4.64
2024-01-21T01:03:37.145Z,-4.62
2024-01-21T01:04:38.785Z,-4.77
2024-01-21T01:05:40.494Z,-4.81
2024-01-21T01:06:42.321Z,-4.89
2024-01-21T01:07:43.875Z,-4.90
2024-01-21T01:08:46.914Z,-4.80
2024-01-21T01:09:48.719Z,-4.63
2024-01-21T01:10:50.376Z,-4.74
2024-01-21T01:11:51.969Z,-4.86
2024-01-21T01:12:53.727Z,-4.71
2024-01-21T01:13:55.249Z,-4.68
2024-01-21T01:14:56.794Z,-4.71
2024-01-21T01:15:59.506Z,-4.87
2024-01-21T01:17:01.116Z,-4.73
2024-01-21T01:18:02.833Z,-4.58
2024-01-21T01:19:04.482Z,-4.60
2024-01-21T01:20:07.303Z,-4.50
2024-01-21T01:21:09.219Z,-4.50
2024-01-21T01:22:10.847Z,-4.49
2024-01-21T01:23:12.457Z,-4.50
2024-01-21T01:24:15.393Z,-4.47
2024-01-21T01:25:16.968Z,-4.45
2024-01-21T01:26:18.535Z,-4.51
2024-01-21T01:27:20.388Z,-4.56
2024-01-21T01:28:21.980Z,-4.71
2024-01-21T01:29:23.609Z,-4.75
2024-01-21T01:30:25.283Z,-4.76
2024-01-21T01:31:26.936Z,-4.72
2024-01-21T01:32:28.590Z,-4.66
2024-01-21T01:33:30.393Z,-4.58
2024-01-21T01:34:32.234Z,-4.58
2024-01-21T01:35:33.828Z,-4.64
2024-01-21T01:36:35.356Z,-4.61
2024-01-21T01:37:36.932Z,-4.59
2024-01-21T01:38:40.290Z,-4.58
2024-01-21T01:39:43.405Z,-4.54
2024-01-21T01:40:45.133Z,-4.54
2024-01-21T01:41:46.703Z,-4.58
2024-01-21T01:42:54.045Z,-4.76
2024-01-21T01:43:55.634Z,-4.81
2024-01-21T01:44:57.281Z,-4.79
2024-01-21T01:45:59.091Z,-4.78
2024-01-21T01:47:00.652Z,-4.76
2024-01-21T01:48:03.273Z,-4.81
2024-01-21T01:49:05.408Z,-4.82
2024-01-21T01:50:07.940Z,-4.83
2024-01-21T01:51:09.868Z,-4.83
2024-01-21T01:52:14.041Z,-4.81
2024-01-21T01:53:15.932Z,-4.89
2024-01-21T01:54:17.741Z,-4.98
2024-01-21T01:55:20.797Z,-5.13
2024-01-21T01:56:22.487Z,-5.27
2024-01-21T01:57:24.581Z,-5.34
2024-01-21T01:58:28.374Z,-5.42
2024-01-21T01:59:33.121Z,-5.39
2024-01-21T02:00:34.779Z,-5.39
2024-01-21T02:01:37.525Z,-5.54
2024-01-21T02:02:40.113Z,-5.51
2024-01-21T02:03:42.706Z,-5.49
2024-01-21T02:04:44.430Z,-5.55
2024-01-21T02:05:48.657Z,-5.47
2024-01-21T02:06:50.199Z,-5.42
2024-01-21T02:07:51.762Z,-5.44
2024-01-21T02:08:53.329Z,-5.43
2024-01-21T02:09:55.010Z,-5.53
2024-01-21T02:10:57.923Z,-5.54
2024-01-21T02:11:59.542Z,-5.51
2024-01-21T02:13:01.328Z,-5.50
2024-01-21T02:14:03.129Z,-5.42
2024-01-21T02:15:05.659Z,-5.38
2024-01-21T02:16:07.769Z,-5.43
2024-01-21T02:17:09.404Z,-5.52
2024-01-21T02:18:11.181Z,-5.47
2024-01-21T02:19:24.504Z,-5.44
2024-01-21T02:20:26.762Z,-5.44
2024-01-21T02:21:28.338Z,-5.42
2024-01-21T02:22:31.743Z,-5.38
2024-01-21T02:23:34.762Z,-5.41
2024-01-21T02:24:36.428Z,-5.35
2024-01-21T02:25:38.190Z,-5.33
2024-01-21T02:26:39.898Z,-5.35
2024-01-21T02:27:41.758Z,-5.26
2024-01-21T02:28:43.473Z,-5.29
2024-01-21T02:29:45.050Z,-5.28
2024-01-21T02:30:46.608Z,-5.24
2024-01-21T02:31:49.961Z,-5.22
2024-01-21T02:32:52.123Z,-5.23
2024-01-21T02:33:53.902Z,-5.30
2024-01-21T02:34:55.605Z,-5.22
2024-01-21T02:35:57.324Z,-5.21
2024-01-21T02:36:59.117Z,-5.17
2024-01-21T02:38:00.733Z,-5.13
2024-01-21T02:39:06.195Z,-5.13
2024-01-21T02:40:09.162Z,-5.11
2024-01-21T02:41:10.872Z,-5.14
2024-01-21T02:42:12.755Z,-5.12
2024-01-21T02:43:14.413Z,-5.11
2024-01-21T02:44:15.953Z,-5.08
2024-01-21T02:45:17.508Z,-5.34
2024-01-21T02:46:19.143Z,-5.41
2024-01-21T02:47:20.700Z,-5.30
2024-01-21T02:48:22.322Z,-5.45
2024-01-21T02:49:24.246Z,-5.47
2024-01-21T02:50:26.056Z,-5.56
2024-01-21T02:51:30.727Z,-5.48
2024-01-21T02:52:32.520Z,-5.50
2024-01-21T02:53:34.139Z,-5.48
2024-01-21T02:54:38.285Z,-5.51
2024-01-21T02:55:39.822Z,-5.44
2024-01-21T02:56:41.516Z,-5.45
2024-01-21T02:57:43.082Z,-5.44
2024-01-21T02:58:44.694Z,-5.45
2024-01-21T02:59:46.725Z,-5.42
2024-01-21T03:00:48.552Z,-5.48
2024-01-21T03:01:50.502Z,-5.49
2024-01-21T03:02:52.294Z,-5.47
2024-01-21T03:03:55.588Z,-5.49
2024-01-21T03:04:57.145Z,-5.48
2024-01-21T03:05:58.762Z,-5.43
2024-01-21T03:07:03.248Z,-5.34
2024-01-21T03:08:06.009Z,-5.29
2024-01-21T03:09:07.711Z,-5.30
2024-01-21T03:10:10.844Z,-5.30
2024-01-21T03:11:12.434Z,-5.44
2024-01-21T03:12:17.510Z,-5.46
2024-01-21T03:13:19.185Z,-5.52
2024-01-21T03:14:20.823Z,-5.57
2024-01-21T03:15:22.546Z,-5.51
2024-01-21T03:16:24.643Z,-5.48
2024-01-21T03:17:27.350Z,-5.44
2024-01-21T03:18:29.006Z,-5.45
2024-01-21T03:19:30.699Z,-5.46
2024-01-21T03:20:32.446Z,-5.51
2024-01-21T03:21:34.084Z,-5.51
2024-01-21T03:22:35.734Z,-5.49
2024-01-21T03:23:37.321Z,-5.50
2024-01-21T03:24:39.001Z,-5.53
2024-01-21T03:25:41.999Z,-5.51
2024-01-21T03:26:43.615Z,-5.53
2024-01-21T03:27:46.944Z,-5.57
2024-01-21T03:28:50.138Z,-5.63
2024-01-21T03:29:51.904Z,-5.62
2024-01-21T03:30:53.548Z,-5.66
2024-01-21T03:31:55.475Z,-5.75
2024-01-21T03:32:57.404Z,-5.78
2024-01-21T03:33:59.140Z,-5.79
2024-01-21T03:35:00.768Z,-5.80
2024-01-21T03:36:02.473Z,-5.63
2024-01-21T03:37:04.657Z,-5.55
2024-01-21T03:38:06.498Z,-5.49
2024-01-21T03:39:08.249Z,-5.50
2024-01-21T03:40:10.830Z,-5.48
2024-01-21T03:41:13.946Z,-5.54
2024-01-21T03:42:16.339Z,-5.52
2024-01-21T03:43:18.242Z,-5.44
2024-01-21T03:44:19.949Z,-5.39
2024-01-21T03:45:21.683Z,-5.47
2024-01-21T03:46:24.111Z,-5.39
2024-01-21T03:47:25.692Z,-5.32
2024-01-21T03:48:27.442Z,-5.31
2024-01-21T03:49:29.641Z,-5.44
2024-01-21T03:50:31.294Z,-5.55
2024-01-21T03:51:32.927Z,-5.73
2024-01-21T03:52:34.511Z,-5.58
2024-01-21T03:53:36.042Z,-5.54
2024-01-21T03:54:37.632Z,-5.41
2024-01-21T03:55:39.244Z,-5.35
2024-01-21T03:56:42.121Z,-5.32
2024-01-21T03:57:43.787Z,-5.34
2024-01-21T03:58:46.496Z,-5.34
2024-01-21T03:59:48.416Z,-5.27
2024-01-21T04:00:50.094Z,-5.22
2024-01-21T04:01:51.841Z,-5.15
2024-01-21T04:02:53.419Z,-5.13
2024-01-21T04:03:55.036Z,-5.16
2024-01-21T04:04:56.717Z,-5.25
2024-01-21T04:05:58.358Z,-5.32
2024-01-21T04:07:00.021Z,-5.34
2024-01-21T04:08:01.647Z,-5.36
2024-01-21T04:09:03.246Z,-5.35
2024-01-21T04:10:05.410Z,-5.34
2024-01-21T04:11:06.945Z,-5.28
2024-01-21T04:12:12.521Z,-5.28
2024-01-21T04:13:14.349Z,-5.28
2024-01-21T04:14:16.012Z,-5.30
2024-01-21T04:15:17.612Z,-5.31
2024-01-21T04:16:19.227Z,-5.36
2024-01-21T04:17:22.824Z,-5.48
2024-01-21T04:18:24.486Z,-5.46
2024-01-21T04:19:26.162Z,-5.52
2024-01-21T04:20:27.924Z,-5.53
2024-01-21T04:21:29.522Z,-5.48
2024-01-21T04:22:31.132Z,-5.47
2024-01-21T04:23:32.684Z,-5.38
2024-01-21T04:24:35.193Z,-5.30
2024-01-21T04:25:36.857Z,-5.26
2024-01-21T04:26:38.460Z,-5.27
2024-01-21T04:27:41.340Z,-5.26
2024-01-21T04:28:42.914Z,-5.19
2024-01-21T04:29:44.517Z,-5.09
2024-01-21T04:30:46.112Z,-5.04
2024-01-21T04:31:47.860Z,-5.12
2024-01-21T04:32:49.593Z,-5.10
2024-01-21T04:33:51.180Z,-5.05
2024-01-21T04:34:54.426Z,-5.12
2024-01-21T04:35:56.117Z,-5.11
2024-01-21T04:36:57.686Z,-5.10
2024-01-21T04:37:59.307Z,-5.08
2024-01-21T04:39:00.841Z,-5.13
2024-01-21T04:40:02.359Z,-5.15
2024-01-21T04:41:04.191Z,-5.21
2024-01-21T04:42:05.807Z,-5.18
2024-01-21T04:43:08.710Z,-5.13
2024-01-21T04:44:10.275Z,-5.15
2024-01-21T04:45:12.506Z,-5.19
2024-01-21T04:46:14.201Z,-5.17
2024-01-21T04:47:15.821Z,-5.09
2024-01-21T04:48:17.560Z,-5.02
2024-01-21T04:49:19.420Z,-5.02
2024-01-21T04:50:21.122Z,-5.15
2024-01-21T04:51:22.821Z,-5.14
2024-01-21T04:52:24.418Z,-5.16
2024-01-21T04:53:27.685Z,-5.23
2024-01-21T04:54:30.073Z,-5.14
2024-01-21T04:55:31.710Z,-5.11
2024-01-21T04:56:33.294Z,-5.07
2024-01-21T04:57:35.037Z,-5.05
2024-01-21T04:58:37.959Z,-4.98
2024-01-21T04:59:39.669Z,-4.94
2024-01-21T05:00:41.380Z,-5.18
2024-01-21T05:01:43.001Z,-5.13
2024-01-21T05:02:44.676Z,-5.19
2024-01-21T05:03:46.425Z,-5.08
2024-01-21T05:04:48.077Z,-5.04
2024-01-21T05:05:50.556Z,-4.89
2024-01-21T05:06:56.551Z,-4.78
2024-01-21T05:07:58.204Z,-4.71
2024-01-21T05:08:59.813Z,-4.62
2024-01-21T05:10:01.441Z,-4.78
2024-01-21T05:11:03.216Z,-5.00
2024-01-21T05:12:05.332Z,-5.17
2024-01-21T05:13:07.038Z,-5.22
2024-01-21T05:14:09.921Z,-5.12
2024-01-21T05:15:11.737Z,-4.85
2024-01-21T05:16:13.395Z,-4.72
2024-01-21T05:17:15.102Z,-4.63
2024-01-21T05:18:16.927Z,-4.70
2024-01-21T05:19:18.575Z,-4.58
2024-01-21T05:20:20.149Z,-4.57
2024-01-21T05:21:22.397Z,-4.61
2024-01-21T05:22:24.184Z,-4.52
2024-01-21T05:23:25.760Z,-4.32
2024-01-21T05:24:27.379Z,-4.20
2024-01-21T05:25:28.890Z,-4.10
2024-01-21T05:26:30.426Z,-4.01
2024-01-21T05:27:33.032Z,-3.91
2024-01-21T05:28:34.584Z,-3.88
2024-01-21T05:29:38.350Z,-3.87
2024-01-21T05:30:40.075Z,-3.95
2024-01-21T05:31:41.659Z,-3.93
2024-01-21T05:32:43.298Z,-3.97
2024-01-21T05:33:44.943Z,-4.01
2024-01-21T05:34:46.656Z,-3.93
2024-01-21T05:35:48.330Z,-3.89
2024-01-21T05:36:49.961Z,-3.87
2024-01-21T05:37:51.752Z,-3.85
2024-01-21T05:38:53.362Z,-3.97
2024-01-21T05:39:55.056Z,-3.92
2024-01-21T05:40:56.654Z,-4.13
2024-01-21T05:42:01.662Z,-4.67
2024-01-21T05:43:03.514Z,-5.00
2024-01-21T05:44:05.560Z,-5.23
2024-01-21T05:45:09.303Z,-5.09
2024-01-21T05:46:11.165Z,-4.83
2024-01-21T05:47:12.759Z,-4.55
2024-01-21T05:48:14.480Z,-4.31
2024-01-21T05:49:16.147Z,-4.30
2024-01-21T05:50:17.949Z,-4.32
2024-01-21T05:51:19.759Z,-4.24
2024-01-21T05:52:21.534Z,-4.16
2024-01-21T05:53:23.124Z,-4.04
2024-01-21T05:54:24.846Z,-3.95
2024-01-21T05:55:26.488Z,-3.86
2024-01-21T05:56:28.191Z,-3.76
2024-01-21T05:57:29.745Z,-3.74
2024-01-21T05:58:31.336Z,-3.74
2024-01-21T05:59:32.945Z,-3.66
2024-01-21T06:00:36.003Z,-3.64
2024-01-21T06:01:37.920Z,-3.68
2024-01-21T06:02:39.772Z,-3.65
2024-01-21T06:03:41.476Z,-3.67
2024-01-21T06:04:43.120Z,-3.63
2024-01-21T06:05:44.755Z,-3.59
2024-01-21T06:06:46.429Z,-3.55
2024-01-21T06:07:48.164Z,-3.52
2024-01-21T06:08:49.764Z,-3.47
2024-01-21T06:09:51.391Z,-3.43
2024-01-21T06:10:52.945Z,-3.38
2024-01-21T06:11:54.485Z,-3.35
2024-01-21T06:12:56.056Z,-3.34
2024-01-21T06:13:57.581Z,-3.36
2024-01-21T06:14:59.130Z,-3.49
2024-01-21T06:16:02.379Z,-3.50
2024-01-21T06:17:04.528Z,-3.47
2024-01-21T06:18:06.218Z,-3.52
2024-01-21T06:19:07.942Z,-3.59
2024-01-21T06:20:10.588Z,-3.51
2024-01-21T06:21:12.175Z,-3.52
2024-01-21T06:22:13.839Z,-3.62
2024-01-21T06:23:15.371Z,-3.55
2024-01-21T06:24:16.913Z,-3.62
2024-01-21T06:25:18.666Z,-3.64
2024-01-21T06:26:21.124Z,-3.65
2024-01-21T06:27:22.936Z,-3.62
2024-01-21T06:28:24.574Z,-3.67
2024-01-21T06:29:26.154Z,-3.61
2024-01-21T06:30:27.719Z,-3.66
2024-01-21T06:31:30.742Z,-3.67
2024-01-21T06:32:32.321Z,-3.68
2024-01-21T06:33:34.026Z,-3.76
2024-01-21T06:34:36.106Z,-3.76
2024-01-21T06:35:37.726Z,-3.78
2024-01-21T06:36:42.199Z,-3.72
2024-01-21T06:37:43.814Z,-3.77
2024-01-21T06:38:45.423Z,-3.72
2024-01-21T06:39:54.764Z,-3.67
2024-01-21T06:41:02.194Z,-3.59
2024-01-21T06:42:04.168Z,-3.57
2024-01-21T06:43:05.800Z,-3.70
2024-01-21T06:44:07.341Z,-3.77
2024-01-21T06:45:12.127Z,-3.83
2024-01-21T06:46:15.293Z,-3.91
2024-01-21T06:47:18.231Z,-3.86
2024-01-21T06:48:19.984Z,-3.79
2024-01-21T06:49:22.032Z,-3.72
2024-01-21T06:50:23.679Z,-3.93
2024-01-21T06:51:25.435Z,-3.94
2024-01-21T06:52:27.003Z,-3.91
2024-01-21T06:53:28.592Z,-4.05
2024-01-21T06:54:30.187Z,-4.07
2024-01-21T06:55:31.756Z,-3.85
2024-01-21T06:56:33.338Z,-3.70
2024-01-21T06:57:35.302Z,-3.57
2024-01-21T06:58:37.212Z,-3.53
2024-01-21T06:59:38.880Z,-3.52
2024-01-21T07:00:41.194Z,-3.65
2024-01-21T07:01:43.295Z,-3.74
2024-01-21T07:02:46.375Z,-3.76
2024-01-21T07:03:48.010Z,-3.71
2024-01-21T07:04:49.661Z,-3.76
2024-01-21T07:05:51.252Z,-3.79
2024-01-21T07:06:52.905Z,-3.85
2024-01-21T07:07:54.496Z,-3.84
2024-01-21T07:08:56.072Z,-3.78
2024-01-21T07:09:57.659Z,-3.72
2024-01-21T07:10:59.438Z,-3.67
2024-01-21T07:12:01.132Z,-3.80
2024-01-21T07:13:04.043Z,-3.70
2024-01-21T07:14:05.751Z,-3.61
2024-01-21T07:15:08.197Z,-3.61
2024-01-21T07:16:12.690Z,-3.58
2024-01-21T07:17:14.319Z,-3.52
2024-01-21T07:18:19.114Z,-3.54
2024-01-21T07:19:20.826Z,-3.55
2024-01-21T07:20:22.556Z,-3.48
2024-01-21T07:21:27.451Z,-3.39
2024-01-21T07:22:29.516Z,-3.48
2024-01-21T07:23:31.080Z,-3.34
2024-01-21T07:24:32.695Z,-3.34
2024-01-21T07:25:35.019Z,-3.36
2024-01-21T07:26:37.136Z,-3.26
2024-01-21T07:27:38.760Z,-3.29
2024-01-21T07:28:40.679Z,-3.17
2024-01-21T07:29:42.352Z,-3.22
2024-01-21T07:30:44.752Z,-3.24
2024-01-21T07:31:46.419Z,-3.26
2024-01-21T07:32:50.147Z,-3.23
2024-01-21T07:33:58.166Z,-3.41
2024-01-21T07:35:00.528Z,-3.32
2024-01-21T07:36:02.152Z,-3.24
2024-01-21T07:37:05.512Z,-3.24
2024-01-21T07:38:07.596Z,-3.25
2024-01-21T07:39:09.286Z,-3.21
2024-01-21T07:40:19.891Z,-3.15
2024-01-21T07:41:22.752Z,-3.15
2024-01-21T07:42:25.514Z,-3.25
2024-01-21T07:43:27.300Z,-3.22
2024-01-21T07:44:30.333Z,-3.16
2024-01-21T07:45:33.043Z,-3.12
2024-01-21T07:46:34.658Z,-3.03
2024-01-21T07:47:36.603Z,-2.99
2024-01-21T07:48:38.453Z,-3.01
2024-01-21T07:49:42.079Z,-3.10
2024-01-21T07:50:43.749Z,-3.07
2024-01-21T07:51:46.291Z,-3.21
2024-01-21T07:52:48.537Z,-3.21
2024-01-21T07:53:50.119Z,-3.11
2024-01-21T07:54:51.928Z,-3.08
2024-01-21T07:55:54.813Z,-3.04
2024-01-21T07:56:56.719Z,-2.99
2024-01-21T07:57:58.374Z,-2.94
2024-01-21T07:59:00.047Z,-2.86
2024-01-21T08:00:01.963Z,-2.74
2024-01-21T08:01:09.608Z,-2.72
2024-01-21T08:02:11.280Z,-2.72
2024-01-21T08:03:13.133Z,-2.76
2024-01-21T08:04:17.645Z,-2.68
2024-01-21T08:05:21.091Z,-2.61
2024-01-21T08:06:22.784Z,-2.56
2024-01-21T08:07:24.475Z,-2.51
2024-01-21T08:08:26.081Z,-2.39
2024-01-21T08:09:29.086Z,-2.27
2024-01-21T08:10:30.780Z,-2.15
2024-01-21T08:11:32.476Z,-2.15
2024-01-21T08:12:34.126Z,-2.03
2024-01-21T08:13:35.903Z,-2.14
2024-01-21T08:14:37.761Z,-2.07
2024-01-21T08:15:39.392Z,-2.03
2024-01-21T08:16:42.797Z,-2.00
2024-01-21T08:17:44.504Z,-1.92
2024-01-21T08:18:46.387Z,-1.89
2024-01-21T08:19:48.293Z,-1.83
2024-01-21T08:20:51.286Z,-1.83
2024-01-21T08:21:52.954Z,-1.85
2024-01-21T08:22:55.138Z,-1.79
2024-01-21T08:23:56.956Z,-1.78
2024-01-21T08:24:58.625Z,-1.75
2024-01-21T08:26:00.891Z,-1.79
2024-01-21T08:27:02.534Z,-1.82
2024-01-21T08:28:04.793Z,-1.79
2024-01-21T08:29:06.541Z,-1.78
2024-01-21T08:30:09.637Z,-1.87
2024-01-21T08:31:11.386Z,-1.76
2024-01-21T08:32:13.001Z,-1.71
2024-01-21T08:33:14.767Z,-1.63
2024-01-21T08:34:16.919Z,-1.59
2024-01-21T08:35:18.749Z,-1.51
2024-01-21T08:36:21.858Z,-1.47
2024-01-21T08:37:23.665Z,-1.45
2024-01-21T08:38:25.300Z,-1.42
2024-01-21T08:39:27.220Z,-1.65
2024-01-21T08:40:28.881Z,-1.68
2024-01-21T08:41:31.183Z,-1.59
2024-01-21T08:42:32.879Z,-1.56
2024-01-21T08:43:34.635Z,-1.48
2024-01-21T08:44:36.356Z,-1.34
2024-01-21T08:45:38.589Z,-1.27
2024-01-21T08:46:40.174Z,-1.31
2024-01-21T08:47:44.057Z,-1.52
2024-01-21T08:48:45.931Z,-1.47
2024-01-21T08:49:48.219Z,-1.25
2024-01-21T08:50:50.004Z,-1.17
2024-01-21T08:51:53.060Z,-1.17
2024-01-21T08:52:58.824Z,-1.14
2024-01-21T08:54:03.566Z,-1.09
2024-01-21T08:55:06.474Z,-1.13
2024-01-21T08:56:08.110Z,-1.04
2024-01-21T08:57:09.781Z,-1.11
2024-01-21T08:58:11.519Z,-1.03
2024-01-21T08:59:16.336Z,-0.98
2024-01-21T09:00:20.590Z,-0.84
2024-01-21T09:01:23.761Z,-0.79
2024-01-21T09:02:25.679Z,-0.78
2024-01-21T09:03:27.749Z,-0.69
2024-01-21T09:04:29.562Z,-0.57
2024-01-21T09:05:31.502Z,-0.56
2024-01-21T09:06:34.891Z,-0.47
2024-01-21T09:07:38.376Z,-0.44
2024-01-21T09:08:40.079Z,-0.58
2024-01-21T09:09:41.897Z,-0.49
2024-01-21T09:10:43.780Z,-0.35
2024-01-21T09:11:45.946Z,-0.17
2024-01-21T09:12:47.716Z,0.01
2024-01-21T09:13:49.353Z,0.18
2024-01-21T09:14:51.014Z,0.23
2024-01-21T09:15:54.672Z,0.25
2024-01-21T09:16:56.474Z,0.33
2024-01-21T09:17:58.193Z,0.33
2024-01-21T09:19:00.013Z,0.26
2024-01-21T09:20:01.842Z,0.22
2024-01-21T09:21:04.863Z,0.28
2024-01-21T09:22:07.585Z,0.30
2024-01-21T09:23:10.689Z,0.33
2024-01-21T09:24:12.386Z,0.27
2024-01-21T09:25:14.460Z,0.33
2024-01-21T09:26:16.346Z,0.30
2024-01-21T09:27:18.070Z,0.17
2024-01-21T09:28:19.661Z,0.08
2024-01-21T09:29:21.330Z,0.02
2024-01-21T09:30:22.963Z,0.06
2024-01-21T09:31:24.638Z,0.15
2024-01-21T09:32:26.927Z,0.18
2024-01-21T09:33:28.810Z,0.05
2024-01-21T09:34:30.666Z,0.05
2024-01-21T09:35:32.606Z,0.13
2024-01-21T09:36:34.293Z,0.08
2024-01-21T09:37:36.253Z,0.21
2024-01-21T09:38:39.283Z,0.24
2024-01-21T09:39:40.976Z,0.19
2024-01-21T09:40:42.657Z,0.18
2024-01-21T09:41:48.923Z,0.15
2024-01-21T09:42:50.549Z,0.25
2024-01-21T09:43:52.401Z,0.23
2024-01-21T09:44:55.021Z,0.31
2024-01-21T09:45:57.762Z,0.30
2024-01-21T09:47:00.695Z,0.28
2024-01-21T09:48:03.719Z,0.25
2024-01-21T09:49:05.551Z,0.37
2024-01-21T09:50:09.218Z,0.47
2024-01-21T09:51:11.325Z,0.45
2024-01-21T09:52:16.874Z,0.51
2024-01-21T09:53:18.493Z,0.53
2024-01-21T09:54:23.386Z,0.58
2024-01-21T09:55:25.112Z,0.74
2024-01-21T09:56:26.839Z,0.62
2024-01-21T09:57:28.520Z,0.74
2024-01-21T09:58:34.249Z,0.81
2024-01-21T09:59:36.462Z,0.78
2024-01-21T10:00:38.731Z,0.43
2024-01-21T10:01:42.014Z,0.54
2024-01-21T10:02:44.031Z,0.80
2024-01-21T10:03:46.855Z,0.91
2024-01-21T10:04:48.552Z,0.96
2024-01-21T10:05:50.165Z,1.00
2024-01-21T10:06:51.944Z,1.10
2024-01-21T10:07:53.910Z,1.17
2024-01-21T10:09:11.305Z,1.12
2024-01-21T10:10:14.448Z,1.16
2024-01-21T10:11:16.230Z,1.26
2024-01-21T10:12:19.156Z,1.26
2024-01-21T10:13:20.902Z,1.26
2024-01-21T10:14:22.717Z,1.35
2024-01-21T10:15:24.318Z,1.24
2024-01-21T10:16:25.932Z,1.25
2024-01-21T10:17:27.580Z,1.27
2024-01-21T10:18:29.500Z,0.93
2024-01-21T10:19:33.917Z,0.92
2024-01-21T10:20:36.984Z,0.94
2024-01-21T10:21:38.789Z,0.97
2024-01-21T10:22:40.667Z,0.93
2024-01-21T10:23:42.329Z,0.93
2024-01-21T10:24:46.165Z,1.05
2024-01-21T10:25:49.237Z,1.02
2024-01-21T10:26:50.772Z,1.02
2024-01-21T10:27:52.508Z,1.01
2024-01-21T10:28:54.248Z,1.20
2024-01-21T10:29:57.523Z,1.22
2024-01-21T10:30:59.354Z,1.26
2024-01-21T10:32:01.003Z,1.32
2024-01-21T10:33:02.638Z,1.32
2024-01-21T10:34:06.663Z,1.41
2024-01-21T10:35:08.769Z,1.57
2024-01-21T10:36:11.911Z,1.59
2024-01-21T10:37:15.394Z,1.49
2024-01-21T10:38:17.029Z,1.41
2024-01-21T10:39:21.524Z,1.37
2024-01-21T10:40:23.599Z,1.24
2024-01-21T10:41:31.966Z,1.31
2024-01-21T10:42:35.539Z,1.03
2024-01-21T10:43:38.274Z,0.96
2024-01-21T10:44:40.702Z,1.06
2024-01-21T10:45:45.258Z,1.27
2024-01-21T10:46:48.236Z,1.39
2024-01-21T10:47:50.979Z,0.96
2024-01-21T10:48:55.807Z,1.13
2024-01-21T10:50:04.609Z,1.23
2024-01-21T10:51:07.769Z,1.21
2024-01-21T10:52:11.379Z,1.41
2024-01-21T10:53:14.071Z,1.63
2024-01-21T10:54:15.837Z,1.68
2024-01-21T10:55:17.860Z,1.59
2024-01-21T10:56:19.790Z,1.63
2024-01-21T10:57:22.749Z,1.58
2024-01-21T10:58:24.477Z,1.73
2024-01-21T10:59:26.191Z,1.69
2024-01-21T11:00:28.514Z,1.68
2024-01-21T11:01:31.584Z,1.77
2024-01-21T11:02:33.551Z,1.83
2024-01-21T11:03:35.282Z,1.93
2024-01-21T11:04:40.979Z,1.86
2024-01-21T11:05:42.662Z,1.81
2024-01-21T11:06:45.166Z,2.01
2024-01-21T11:08:01.808Z,2.06
2024-01-21T11:09:03.693Z,2.23
2024-01-21T11:10:06.510Z,2.38
2024-01-21T11:11:17.457Z,2.49
2024-01-21T11:12:19.181Z,2.26
2024-01-21T11:13:40.688Z,2.44
2024-01-21T11:14:42.685Z,2.55
2024-01-21T11:15:47.693Z,2.61
2024-01-21T11:16:54.734Z,2.26
2024-01-21T11:18:08.848Z,2.15
2024-01-21T11:19:11.072Z,2.20
2024-01-21T11:20:24.974Z,2.24
2024-01-21T11:21:28.195Z,2.24
2024-01-21T11:22:29.810Z,2.44
2024-01-21T11:23:31.418Z,2.62
2024-01-21T11:24:33.185Z,2.63
2024-01-21T11:25:35.169Z,2.75
2024-01-21T11:26:38.311Z,2.78
2024-01-21T11:27:39.851Z,2.88
2024-01-21T11:28:42.875Z,2.81
2024-01-21T11:29:44.866Z,2.74
2024-01-21T11:30:46.561Z,2.64
2024-01-21T11:31:49.462Z,2.72
2024-01-21T11:32:55.724Z,2.72
2024-01-21T11:34:04.810Z,2.61
2024-01-21T11:35:07.654Z,2.42
2024-01-21T11:36:09.963Z,2.44
2024-01-21T11:37:13.237Z,2.47
2024-01-21T11:38:16.515Z,2.50
2024-01-21T11:39:19.572Z,2.49
2024-01-21T11:40:21.160Z,2.36
2024-01-21T11:41:29.496Z,2.30
2024-01-21T11:42:31.135Z,2.45
2024-01-21T11:43:32.735Z,2.64
2024-01-21T11:44:37.687Z,2.64
2024-01-21T11:45:39.970Z,2.76
2024-01-21T11:46:42.591Z,2.64
2024-01-21T11:47:46.020Z,2.75
2024-01-21T11:48:47.706Z,2.97
2024-01-21T11:49:51.223Z,3.12
2024-01-21T11:50:53.159Z,3.02
2024-01-21T11:51:55.182Z,3.08
2024-01-21T11:52:57.003Z,3.11
2024-01-21T11:53:58.636Z,3.15
2024-01-21T11:55:00.683Z,3.23
2024-01-21T11:56:02.776Z,3.19
2024-01-21T11:57:06.637Z,3.19
2024-01-21T11:58:08.908Z,3.39
2024-01-21T11:59:11.916Z,3.46
2024-01-21T12:00:16.785Z,3.61
2024-01-21T12:01:18.692Z,3.50
2024-01-21T12:02:20.342Z,3.51
2024-01-21T12:03:21.907Z,3.53
2024-01-21T12:04:23.915Z,3.41
2024-01-21T12:05:25.583Z,3.46
2024-01-21T12:06:27.554Z,3.54
2024-01-21T12:07:29.570Z,3.54
2024-01-21T12:08:31.804Z,3.40
2024-01-21T12:09:33.762Z,3.31
2024-01-21T12:10:35.511Z,3.15
2024-01-21T12:11:38.125Z,2.95
2024-01-21T12:12:39.714Z,2.88
2024-01-21T12:13:41.397Z,2.97
2024-01-21T12:14:43.060Z,2.99
2024-01-21T12:15:49.863Z,2.89
2024-01-21T12:16:52.577Z,2.79
2024-01-21T12:17:54.651Z,2.89
2024-01-21T12:18:56.745Z,2.89
2024-01-21T12:19:58.749Z,2.85
2024-01-21T12:21:00.527Z,3.03
2024-01-21T12:22:02.311Z,3.04
2024-01-21T12:23:08.639Z,3.00
2024-01-21T12:24:10.457Z,2.88
2024-01-21T12:25:12.645Z,2.82
2024-01-21T12:26:17.601Z,2.97
2024-01-21T12:27:19.265Z,2.88
2024-01-21T12:28:20.909Z,3.03
2024-01-21T12:29:22.606Z,3.14
2024-01-21T12:30:25.604Z,3.10
2024-01-21T12:31:31.010Z,3.01
2024-01-21T12:32:32.767Z,2.95
2024-01-21T12:33:34.609Z,2.89
2024-01-21T12:34:36.664Z,2.87
2024-01-21T12:35:38.347Z,2.83
2024-01-21T12:36:41.947Z,2.82
2024-01-21T12:37:43.630Z,2.98
2024-01-21T12:38:45.623Z,2.98
2024-01-21T12:39:47.739Z,3.14
2024-01-21T12:40:49.349Z,2.96
2024-01-21T12:41:50.936Z,2.82
2024-01-21T12:42:53.121Z,2.62
2024-01-21T12:43:54.732Z,2.55
2024-01-21T12:44:56.375Z,2.63
2024-01-21T12:45:58.042Z,2.90
2024-01-21T12:47:01.080Z,3.10
2024-01-21T12:48:03.067Z,3.23
2024-01-21T12:49:04.991Z,3.08
2024-01-21T12:50:09.005Z,3.35
2024-01-21T12:51:10.419Z,3.35
2024-01-21T12:52:12.101Z,3.37
2024-01-21T12:53:13.708Z,3.31
2024-01-21T12:54:15.468Z,3.28
2024-01-21T12:55:17.196Z,3.32
2024-01-21T12:56:19.588Z,3.11
2024-01-21T12:57:21.350Z,3.14
2024-01-21T12:58:23.104Z,3.15
2024-01-21T12:59:24.785Z,3.31
2024-01-21T13:00:26.426Z,3.31
2024-01-21T13:01:28.064Z,3.43
2024-01-21T13:02:31.117Z,3.44
2024-01-21T13:03:32.890Z,3.49
2024-01-21T13:04:34.556Z,3.47
2024-01-21T13:05:36.161Z,3.50
2024-01-21T13:06:38.141Z,3.39
2024-01-21T13:07:39.932Z,3.45
2024-01-21T13:08:42.382Z,3.47
2024-01-21T13:09:44.048Z,3.51
2024-01-21T13:10:46.146Z,3.57
2024-01-21T13:11:47.767Z,3.88
2024-01-21T13:12:49.445Z,3.39
2024-01-21T13:13:50.987Z,3.32
2024-01-21T13:14:52.622Z,3.54
2024-01-21T13:15:54.843Z,3.42
2024-01-21T13:16:56.585Z,3.26
2024-01-21T13:17:59.930Z,3.40
2024-01-21T13:19:02.070Z,3.36
2024-01-21T13:20:04.490Z,3.50
2024-01-21T13:21:06.320Z,3.61
2024-01-21T13:22:08.044Z,3.54
2024-01-21T13:23:09.870Z,3.54
2024-01-21T13:24:11.470Z,3.43
2024-01-21T13:25:13.265Z,3.23
2024-01-21T13:26:15.113Z,3.19
2024-01-21T13:27:16.733Z,3.16
2024-01-21T13:28:18.372Z,3.01
2024-01-21T13:29:20.249Z,3.00
2024-01-21T13:30:22.111Z,3.00
2024-01-21T13:31:23.722Z,2.91